Time;durP1;ratioP1;P1;durP2;ratioP2;P2;SDS_P1;SDS_P2;PMS_P1;PMS_P2;Temp;Humidity;BMP_temperature;BMP_pressure;BME280_temperature;BME280_humidity;BME280_pressure;Samples;Min_cycle;Max_cycle;Signal;HPM_P1;HPM_P2
2024/04/17 00:00:04;;;;;;;10.63;6.30;;;4.40;99.90;;;;;;5449628;26;20645;-72
2024/04/17 00:02:51;;;;;;;12.00;6.20;;;4.40;99.90;;;;;;5449645;26;20213;-72
2024/04/17 00:05:39;;;;;;;11.07;6.27;;;4.40;99.90;;;;;;5449041;26;20315;-73
2024/04/17 00:08:26;;;;;;;10.07;5.67;;;4.50;99.90;;;;;;5451047;26;20239;-72
2024/04/17 00:11:14;;;;;;;11.17;5.90;;;4.40;99.90;;;;;;5423863;26;20224;-72
2024/04/17 00:14:01;;;;;;;12.13;6.13;;;4.50;99.90;;;;;;5449496;26;20218;-72
2024/04/17 00:16:49;;;;;;;12.57;6.17;;;4.40;99.90;;;;;;5448976;26;20234;-72
2024/04/17 00:19:37;;;;;;;10.97;6.17;;;4.40;99.90;;;;;;5448719;26;20619;-72
2024/04/17 00:22:25;;;;;;;9.70;6.03;;;4.40;99.90;;;;;;5423620;26;20264;-72
2024/04/17 00:25:12;;;;;;;10.47;6.00;;;4.40;99.90;;;;;;5424052;26;20260;-73
2024/04/17 00:28:00;;;;;;;11.57;6.57;;;4.30;99.90;;;;;;5423728;26;20322;-73
2024/04/17 00:30:48;;;;;;;9.53;5.63;;;4.30;99.90;;;;;;5448503;26;20691;-73
2024/04/17 00:33:36;;;;;;;10.90;6.60;;;4.40;99.90;;;;;;5473225;26;20263;-73
2024/04/17 00:36:23;;;;;;;10.60;6.10;;;4.20;99.90;;;;;;5423583;26;20325;-73
2024/04/17 00:39:11;;;;;;;15.87;6.50;;;4.20;99.90;;;;;;5448944;26;20265;-73
2024/04/17 00:41:58;;;;;;;10.73;6.77;;;4.20;99.90;;;;;;5449716;26;20248;-73
2024/04/17 00:44:46;;;;;;;15.80;6.50;;;4.00;99.90;;;;;;5448891;26;20623;-73
2024/04/17 00:47:34;;;;;;;14.77;6.60;;;4.00;99.90;;;;;;5448307;26;20216;-73
2024/04/17 00:50:22;;;;;;;11.27;6.53;;;3.90;99.90;;;;;;5448125;26;20720;-73
2024/04/17 00:53:13;;;;;;;11.47;6.43;;;3.90;99.90;;;;;;5423561;26;20217;-73
2024/04/17 00:56:01;;;;;;;12.80;6.60;;;3.90;99.90;;;;;;5449559;26;20216;-73
2024/04/17 00:58:49;;;;;;;9.93;6.53;;;3.90;99.90;;;;;;5448475;26;20213;-73
2024/04/17 01:01:37;;;;;;;13.80;6.73;;;3.90;99.90;;;;;;5423471;26;20297;-72
2024/04/17 01:04:25;;;;;;;10.57;6.70;;;3.90;99.90;;;;;;5422325;26;20233;-72
2024/04/17 01:07:13;;;;;;;14.30;7.43;;;3.90;99.90;;;;;;5447966;26;20836;-72
2024/04/17 01:10:00;;;;;;;12.57;6.87;;;3.80;99.90;;;;;;5448519;26;20279;-73
2024/04/17 01:12:48;;;;;;;12.10;6.57;;;3.80;99.90;;;;;;5447909;26;20265;-72
2024/04/17 01:15:36;;;;;;;10.27;6.40;;;3.80;99.90;;;;;;5423809;26;20312;-74
2024/04/17 01:18:24;;;;;;;12.20;6.23;;;3.80;99.90;;;;;;5422315;26;20250;-74
2024/04/17 01:21:12;;;;;;;11.37;6.73;;;3.90;99.90;;;;;;5447765;26;20212;-72
2024/04/17 01:23:59;;;;;;;14.17;6.87;;;3.70;99.90;;;;;;5448043;26;20212;-72
2024/04/17 01:26:47;;;;;;;12.10;6.40;;;3.60;99.90;;;;;;5447572;26;20620;-73
2024/04/17 01:29:34;;;;;;;10.40;6.20;;;3.50;99.90;;;;;;5448645;26;20270;-73
2024/04/17 01:32:22;;;;;;;13.10;6.50;;;3.60;99.90;;;;;;5452376;26;20223;-73
2024/04/17 01:35:09;;;;;;;13.37;6.67;;;3.50;99.90;;;;;;5452529;26;20330;-73
2024/04/17 01:37:57;;;;;;;13.67;6.90;;;3.40;99.90;;;;;;5451401;26;20800;-72
2024/04/17 01:40:44;;;;;;;12.17;6.80;;;3.40;99.90;;;;;;5451701;26;20262;-72
2024/04/17 01:43:32;;;;;;;12.03;6.60;;;3.50;99.90;;;;;;5452289;26;20263;-72
2024/04/17 01:46:20;;;;;;;13.00;6.87;;;3.40;99.90;;;;;;5452164;26;20681;-72
2024/04/17 01:49:07;;;;;;;14.07;6.70;;;3.30;99.90;;;;;;5450776;26;20229;-73
2024/04/17 01:51:55;;;;;;;13.97;7.37;;;3.30;99.90;;;;;;5450921;26;20268;-72
2024/04/17 01:54:42;;;;;;;14.57;6.67;;;3.30;99.90;;;;;;5426127;26;20263;-73
2024/04/17 01:57:29;;;;;;;12.20;7.10;;;3.30;99.90;;;;;;5450803;26;20217;-72
2024/04/17 02:00:17;;;;;;;12.17;6.67;;;3.30;99.90;;;;;;5452099;26;20216;-72
2024/04/17 02:03:05;;;;;;;16.27;7.17;;;3.30;99.90;;;;;;5426185;26;20287;-72
2024/04/17 02:05:52;;;;;;;12.07;7.03;;;3.30;99.90;;;;;;5451146;26;20228;-72
2024/04/17 02:08:40;;;;;;;13.93;7.07;;;3.30;99.90;;;;;;5451990;26;20317;-72
2024/04/17 02:11:28;;;;;;;11.97;6.43;;;3.30;99.90;;;;;;5425636;26;20215;-72
2024/04/17 02:14:15;;;;;;;12.97;7.07;;;3.30;99.90;;;;;;5425837;26;20257;-72
2024/04/17 02:17:03;;;;;;;11.20;6.47;;;3.30;99.90;;;;;;5450963;26;20231;-72
2024/04/17 02:19:51;;;;;;;13.17;6.63;;;3.30;99.90;;;;;;5451528;26;20227;-72
2024/04/17 02:22:38;;;;;;;11.63;6.53;;;3.30;99.90;;;;;;5450897;26;20217;-73
2024/04/17 02:25:26;;;;;;;11.80;6.60;;;3.30;99.90;;;;;;5451632;26;20343;-72
2024/04/17 02:28:14;;;;;;;12.73;6.87;;;3.30;99.90;;;;;;5426405;26;20236;-72
2024/04/17 02:31:01;;;;;;;15.77;7.37;;;3.30;99.90;;;;;;5450644;26;20339;-72
2024/04/17 02:33:48;;;;;;;16.27;6.90;;;3.20;99.90;;;;;;5450891;26;20223;-72
2024/04/17 02:36:36;;;;;;;13.63;6.77;;;3.20;99.90;;;;;;5450506;26;20220;-72
2024/04/17 02:39:24;;;;;;;12.57;7.03;;;3.10;99.90;;;;;;5452515;26;20217;-72
2024/04/17 02:42:11;;;;;;;12.07;6.70;;;3.10;99.90;;;;;;5450003;26;20361;-72
2024/04/17 02:44:59;;;;;;;14.33;7.27;;;3.20;99.90;;;;;;5451210;26;20262;-72
2024/04/17 02:47:47;;;;;;;13.50;6.77;;;3.20;99.90;;;;;;5450369;26;20276;-72
2024/04/17 02:50:41;;;;;;;12.10;6.83;;;3.10;99.90;;;;;;5450614;26;20254;-73
2024/04/17 02:53:28;;;;;;;15.00;7.20;;;3.10;99.90;;;;;;5425238;26;20825;-73
2024/04/17 02:56:16;;;;;;;14.30;6.87;;;3.10;99.90;;;;;;5401837;26;20228;-72
2024/04/17 02:59:04;;;;;;;12.17;6.60;;;3.10;99.90;;;;;;5451390;26;20228;-72
2024/04/17 03:01:51;;;;;;;12.23;7.17;;;3.10;99.90;;;;;;5450458;26;20213;-72
2024/04/17 03:04:39;;;;;;;12.43;7.07;;;3.10;99.90;;;;;;5450268;26;20229;-72
2024/04/17 03:07:27;;;;;;;12.30;6.73;;;3.10;99.90;;;;;;5450041;26;20279;-72
2024/04/17 03:10:14;;;;;;;13.83;7.27;;;3.10;99.90;;;;;;5451189;26;20266;-72
2024/04/17 03:13:02;;;;;;;11.17;6.70;;;3.00;99.90;;;;;;5449846;26;20323;-73
2024/04/17 03:15:49;;;;;;;13.90;7.00;;;2.90;99.90;;;;;;5450062;26;20231;-73
2024/04/17 03:18:37;;;;;;;15.60;6.80;;;2.90;99.90;;;;;;5449811;26;20260;-73
2024/04/17 03:21:25;;;;;;;11.77;7.07;;;3.00;99.90;;;;;;5473584;26;20651;-72
2024/04/17 03:24:12;;;;;;;12.50;7.03;;;3.00;99.90;;;;;;5450694;26;20549;-73
2024/04/17 03:27:00;;;;;;;12.97;6.90;;;3.00;99.90;;;;;;5424663;26;20280;-72
2024/04/17 03:29:48;;;;;;;11.73;6.53;;;3.10;99.90;;;;;;5450075;26;20568;-73
2024/04/17 03:32:35;;;;;;;15.07;6.90;;;3.10;99.90;;;;;;5449801;26;20221;-72
2024/04/17 03:35:22;;;;;;;12.70;6.50;;;3.10;99.90;;;;;;5449586;26;20562;-72
2024/04/17 03:38:10;;;;;;;12.60;6.77;;;3.00;99.90;;;;;;5449661;26;20215;-72
2024/04/17 03:40:57;;;;;;;10.93;6.37;;;2.90;99.90;;;;;;5423857;26;20225;-72
2024/04/17 03:43:45;;;;;;;15.40;7.50;;;2.90;99.90;;;;;;5450605;26;20683;-72
2024/04/17 03:46:33;;;;;;;12.00;6.63;;;2.90;99.90;;;;;;5451507;26;20267;-72
2024/04/17 03:49:20;;;;;;;12.67;6.73;;;2.90;99.90;;;;;;5449787;26;20269;-72
2024/04/17 03:52:08;;;;;;;13.27;7.07;;;3.00;99.90;;;;;;5449008;26;20323;-72
2024/04/17 03:54:55;;;;;;;13.83;7.13;;;3.00;99.90;;;;;;5422627;26;20220;-73
2024/04/17 03:57:43;;;;;;;14.43;7.17;;;3.00;99.90;;;;;;5449445;26;20688;-72
2024/04/17 04:00:30;;;;;;;11.17;6.67;;;2.90;99.90;;;;;;5449719;26;20687;-72
2024/04/17 04:03:18;;;;;;;13.93;7.07;;;2.90;99.90;;;;;;5449358;26;20820;-73
2024/04/17 04:06:06;;;;;;;13.17;7.63;;;2.90;99.90;;;;;;5423937;26;20614;-73
2024/04/17 04:08:53;;;;;;;14.77;7.20;;;2.90;99.90;;;;;;5450377;26;20263;-72
2024/04/17 04:11:41;;;;;;;13.60;7.80;;;2.90;99.90;;;;;;5450203;26;20215;-73
2024/04/17 04:14:30;;;;;;;12.87;7.10;;;3.00;99.90;;;;;;5449410;26;20716;-74
2024/04/17 04:17:17;;;;;;;13.17;7.33;;;3.00;99.90;;;;;;5449159;26;20320;-73
2024/04/17 04:24:06;;;;;;;12.73;6.37;;;3.20;99.90;;;;;;5448058;26;20317;-73
2024/04/17 04:26:54;;;;;;;12.93;7.30;;;3.30;99.90;;;;;;5450029;26;20226;-73
2024/04/17 04:29:41;;;;;;;13.07;7.40;;;3.40;99.90;;;;;;5421748;26;20215;-72
2024/04/17 04:32:29;;;;;;;13.20;7.20;;;3.50;99.90;;;;;;5449684;26;20275;-72
2024/04/17 04:35:17;;;;;;;11.80;7.27;;;3.50;99.90;;;;;;5448388;26;20228;-72
2024/04/17 04:38:04;;;;;;;18.47;7.30;;;3.50;99.90;;;;;;5448919;26;20215;-72
2024/04/17 04:40:52;;;;;;;10.17;6.53;;;3.60;99.90;;;;;;5424480;26;20220;-72
2024/04/17 04:43:39;;;;;;;12.73;7.23;;;3.60;99.90;;;;;;5421865;26;20217;-72
2024/04/17 04:46:27;;;;;;;13.20;7.20;;;3.70;99.90;;;;;;5448439;26;20211;-72
2024/04/17 04:49:14;;;;;;;16.23;7.57;;;3.70;99.90;;;;;;5423507;26;20315;-72
2024/04/17 04:52:02;;;;;;;14.40;6.90;;;3.70;99.90;;;;;;5448416;26;20259;-72
2024/04/17 04:54:50;;;;;;;14.63;7.57;;;3.70;99.90;;;;;;5448059;26;20212;-72
2024/04/17 04:57:37;;;;;;;13.17;7.00;;;3.70;99.90;;;;;;5423604;26;20218;-72
2024/04/17 05:00:25;;;;;;;13.90;7.37;;;3.80;99.90;;;;;;5448271;26;20225;-72
2024/04/17 05:03:12;;;;;;;14.20;7.00;;;3.80;99.90;;;;;;5423164;26;20211;-72
2024/04/17 05:06:00;;;;;;;13.53;7.80;;;3.70;99.90;;;;;;5451010;26;20224;-72
2024/04/17 05:08:47;;;;;;;14.30;7.83;;;3.80;99.90;;;;;;5452112;26;20218;-72
2024/04/17 05:11:35;;;;;;;17.47;7.80;;;3.80;99.90;;;;;;5451673;26;20300;-72
2024/04/17 05:14:22;;;;;;;13.20;7.70;;;3.80;99.90;;;;;;5426868;26;20223;-72
2024/04/17 05:17:10;;;;;;;14.03;7.97;;;3.80;99.90;;;;;;5450711;26;20590;-72
2024/04/17 05:19:58;;;;;;;15.97;7.60;;;3.80;99.90;;;;;;5452370;26;20766;-72
2024/04/17 05:22:45;;;;;;;12.80;7.33;;;4.00;99.90;;;;;;5426405;26;20695;-72
2024/04/17 05:25:33;;;;;;;13.73;7.70;;;4.00;99.90;;;;;;5452527;26;20261;-72
2024/04/17 05:28:20;;;;;;;16.77;8.57;;;4.20;99.90;;;;;;5451882;26;20218;-72
2024/04/17 05:31:08;;;;;;;15.50;8.00;;;4.30;99.90;;;;;;5451363;26;20211;-72
2024/04/17 05:33:55;;;;;;;16.63;8.50;;;4.30;99.90;;;;;;5451807;26;20231;-73
2024/04/17 05:36:43;;;;;;;17.77;8.87;;;4.20;99.90;;;;;;5451365;26;20217;-72
2024/04/17 05:39:32;;;;;;;15.83;8.10;;;4.30;99.90;;;;;;5426395;26;20258;-72
2024/04/17 05:42:20;;;;;;;16.90;8.43;;;4.40;99.90;;;;;;5451543;26;20218;-72
2024/04/17 05:45:07;;;;;;;15.50;8.20;;;4.60;99.90;;;;;;5428034;26;20281;-72
2024/04/17 05:47:55;;;;;;;18.30;8.57;;;4.70;99.90;;;;;;5451027;26;20213;-72
2024/04/17 05:50:42;;;;;;;15.37;8.63;;;4.60;99.90;;;;;;5425705;26;20223;-72
2024/04/17 05:53:30;;;;;;;14.90;8.50;;;4.80;99.90;;;;;;5452014;26;20929;-72
2024/04/17 05:56:17;;;;;;;16.90;8.87;;;5.00;99.90;;;;;;5451229;26;20212;-72
2024/04/17 05:59:05;;;;;;;18.53;9.30;;;5.20;99.90;;;;;;5450810;26;20208;-72
2024/04/17 06:01:52;;;;;;;16.83;8.87;;;5.30;99.90;;;;;;5451347;26;20285;-73
2024/04/17 06:04:40;;;;;;;16.03;8.97;;;5.40;99.90;;;;;;5424728;26;20288;-73
2024/04/17 06:07:28;;;;;;;13.83;8.57;;;5.50;99.90;;;;;;5451784;26;20556;-73
2024/04/17 06:10:16;;;;;;;14.23;8.67;;;5.60;99.90;;;;;;5425820;26;20739;-73
2024/04/17 06:13:04;;;;;;;15.20;9.37;;;5.70;99.90;;;;;;5451233;26;20265;-73
2024/04/17 06:15:52;;;;;;;16.63;9.77;;;5.80;99.90;;;;;;5452058;26;20721;-73
2024/04/17 06:18:39;;;;;;;16.53;9.90;;;6.00;99.90;;;;;;5451815;26;20214;-73
2024/04/17 06:21:28;;;;;;;15.97;8.93;;;6.00;99.90;;;;;;5424864;26;20296;-73
2024/04/17 06:24:15;;;;;;;17.43;9.73;;;5.90;99.90;;;;;;5452004;26;20212;-73
2024/04/17 06:27:04;;;;;;;15.50;9.53;;;6.00;99.90;;;;;;5450453;26;20280;-73
2024/04/17 06:29:51;;;;;;;14.40;8.97;;;6.10;99.90;;;;;;5424808;26;20227;-73
2024/04/17 06:32:39;;;;;;;16.17;9.10;;;6.20;99.90;;;;;;5450558;26;20218;-73
2024/04/17 06:35:27;;;;;;;15.30;8.80;;;6.40;99.90;;;;;;5424322;26;20236;-73
2024/04/17 06:38:14;;;;;;;14.30;9.07;;;6.60;99.90;;;;;;5450785;26;20296;-73
2024/04/17 06:41:02;;;;;;;13.00;8.03;;;6.80;99.90;;;;;;5450494;26;20215;-73
2024/04/17 06:43:50;;;;;;;12.10;7.67;;;6.90;99.90;;;;;;5423831;26;20261;-73
2024/04/17 06:46:37;;;;;;;11.57;6.80;;;7.00;99.90;;;;;;5449462;26;20332;-73
2024/04/17 06:49:25;;;;;;;11.30;7.20;;;7.00;99.90;;;;;;5426093;26;20278;-73
2024/04/17 06:52:13;;;;;;;11.53;6.40;;;7.00;99.90;;;;;;5451086;26;20595;-73
2024/04/17 06:55:01;;;;;;;11.67;7.50;;;7.10;99.90;;;;;;5450767;26;20223;-73
2024/04/17 06:57:49;;;;;;;10.20;6.53;;;7.30;99.90;;;;;;5449829;26;20690;-73
2024/04/17 07:00:36;;;;;;;7.90;5.33;;;7.60;99.90;;;;;;5450317;26;20326;-73
2024/04/17 07:03:24;;;;;;;7.30;5.53;;;7.90;99.90;;;;;;5423842;26;20342;-73
2024/04/17 07:06:12;;;;;;;8.93;5.23;;;8.00;99.90;;;;;;5450517;26;20264;-73
2024/04/17 07:08:59;;;;;;;8.87;5.80;;;7.90;99.90;;;;;;5450899;26;20267;-73
2024/04/17 07:11:47;;;;;;;9.97;5.80;;;7.70;99.90;;;;;;5451095;26;20268;-73
2024/04/17 07:14:34;;;;;;;8.83;6.60;;;7.80;99.90;;;;;;5450093;26;20555;-73
2024/04/17 07:17:22;;;;;;;8.83;6.40;;;8.00;99.90;;;;;;5449507;26;20694;-73
2024/04/17 07:20:09;;;;;;;9.87;6.67;;;8.40;99.90;;;;;;5449810;26;20227;-73
2024/04/17 07:22:57;;;;;;;13.10;7.13;;;8.60;99.90;;;;;;5451662;26;20369;-73
2024/04/17 07:25:45;;;;;;;12.63;7.27;;;8.40;99.90;;;;;;5450450;26;20271;-73
2024/04/17 07:28:32;;;;;;;12.63;7.40;;;8.20;99.90;;;;;;5449649;26;20955;-73
2024/04/17 07:31:19;;;;;;;11.27;7.60;;;8.20;99.90;;;;;;5423670;26;20268;-73
2024/04/17 07:34:07;;;;;;;11.67;7.10;;;7.80;99.90;;;;;;5449506;26;20226;-73
2024/04/17 07:36:54;;;;;;;11.67;7.27;;;7.70;99.90;;;;;;5451029;26;20738;-73
2024/04/17 07:39:42;;;;;;;11.53;6.70;;;7.80;99.90;;;;;;5450717;26;20271;-73
2024/04/17 07:42:29;;;;;;;10.87;6.40;;;7.80;99.90;;;;;;5424518;26;20219;-73
2024/04/17 07:45:17;;;;;;;9.73;6.50;;;8.00;99.90;;;;;;5449336;26;20223;-73
2024/04/17 07:48:05;;;;;;;10.47;6.33;;;8.00;99.90;;;;;;5448945;26;20568;-73
2024/04/17 07:50:56;;;;;;;10.87;6.37;;;8.20;99.90;;;;;;5450604;26;20230;-73
2024/04/17 07:53:43;;;;;;;10.57;6.33;;;8.40;99.90;;;;;;5448540;26;20553;-73
2024/04/17 07:56:31;;;;;;;11.93;7.00;;;8.60;99.90;;;;;;5422910;26;20626;-73
2024/04/17 07:59:19;;;;;;;10.23;6.40;;;8.70;99.90;;;;;;5424201;26;20223;-73
2024/04/17 08:02:07;;;;;;;10.67;6.90;;;8.80;99.90;;;;;;5423972;26;20324;-73
2024/04/17 08:04:55;;;;;;;13.63;7.53;;;8.50;99.90;;;;;;5448976;26;20318;-73
2024/04/17 08:07:42;;;;;;;10.47;7.20;;;8.70;99.90;;;;;;5424123;26;20212;-73
2024/04/17 08:10:30;;;;;;;11.13;6.77;;;8.50;99.90;;;;;;5448799;26;20262;-73
2024/04/17 08:13:18;;;;;;;10.20;6.67;;;8.80;99.90;;;;;;5450910;26;20882;-73
2024/04/17 08:16:05;;;;;;;9.30;6.37;;;8.80;99.90;;;;;;5473725;26;20618;-73
2024/04/17 08:18:53;;;;;;;10.57;6.13;;;8.90;99.90;;;;;;5449691;26;20215;-73
2024/04/17 08:21:40;;;;;;;8.57;5.30;;;9.20;99.90;;;;;;5422940;26;20297;-73
2024/04/17 08:24:28;;;;;;;8.37;5.40;;;9.10;99.90;;;;;;5448682;26;20215;-73
2024/04/17 08:27:16;;;;;;;10.00;5.20;;;9.40;99.90;;;;;;5449221;26;20262;-73
2024/04/17 08:30:04;;;;;;;8.73;4.43;;;9.90;99.90;;;;;;5422702;26;20211;-73
2024/04/17 08:32:51;;;;;;;7.57;5.20;;;10.80;99.90;;;;;;5473532;26;20227;-73
2024/04/17 08:35:39;;;;;;;6.57;5.00;;;10.50;99.90;;;;;;5421693;26;20224;-73
2024/04/17 08:38:27;;;;;;;9.17;5.70;;;10.50;99.90;;;;;;5448589;26;20675;-73
2024/04/17 08:41:15;;;;;;;7.93;5.00;;;9.70;99.90;;;;;;5448136;26;20211;-73
2024/04/17 08:44:05;;;;;;;9.20;5.60;;;9.20;99.90;;;;;;5449785;26;20215;-73
2024/04/17 08:46:55;;;;;;;6.97;4.97;;;9.20;99.90;;;;;;5448259;26;20257;-74
2024/04/17 08:49:44;;;;;;;9.67;5.30;;;9.20;99.90;;;;;;5448332;26;20228;-73
2024/04/17 08:52:34;;;;;;;7.43;5.10;;;9.40;99.90;;;;;;5450447;26;20553;-73
2024/04/17 08:55:21;;;;;;;7.30;4.90;;;9.70;99.90;;;;;;5421432;26;20692;-74
2024/04/17 08:58:10;;;;;;;7.67;5.50;;;9.60;99.90;;;;;;5448121;26;20215;-73
2024/04/17 09:00:58;;;;;;;7.20;5.40;;;9.60;99.90;;;;;;5447458;26;20258;-74
2024/04/17 09:03:47;;;;;;;7.37;5.53;;;9.90;99.90;;;;;;5449180;26;20607;-74
2024/04/17 09:06:38;;;;;;;8.37;5.93;;;10.30;99.90;;;;;;5448447;26;20390;-74
2024/04/17 09:09:27;;;;;;;11.17;5.87;;;10.80;99.90;;;;;;5447990;26;20266;-74
2024/04/17 09:12:15;;;;;;;7.77;5.30;;;10.30;99.90;;;;;;5423070;26;20316;-74
2024/04/17 09:15:04;;;;;;;6.67;4.83;;;10.10;99.90;;;;;;5449172;26;20695;-73
2024/04/17 09:17:52;;;;;;;7.93;5.47;;;10.10;99.90;;;;;;5447781;26;20249;-74
2024/04/17 09:20:42;;;;;;;8.03;5.90;;;9.70;99.90;;;;;;5423001;26;20227;-74
2024/04/17 09:23:30;;;;;;;8.50;5.67;;;9.50;99.90;;;;;;5423006;26;20299;-74
2024/04/17 09:26:18;;;;;;;8.37;5.07;;;9.90;99.90;;;;;;5447622;26;20262;-74
2024/04/17 09:29:06;;;;;;;6.17;4.80;;;10.20;99.90;;;;;;5447712;26;20599;-75
2024/04/17 09:31:54;;;;;;;6.23;4.33;;;10.30;99.90;;;;;;5447617;26;20212;-74
2024/04/17 09:34:44;;;;;;;7.00;4.70;;;10.20;99.90;;;;;;5422730;26;20566;-74
2024/04/17 09:37:31;;;;;;;7.47;4.83;;;10.30;99.90;;;;;;5422847;26;20276;-74
2024/04/17 09:40:19;;;;;;;5.83;4.53;;;10.60;99.90;;;;;;5446533;26;20287;-74
2024/04/17 09:43:08;;;;;;;5.47;4.23;;;10.70;99.90;;;;;;5447172;26;20319;-73
2024/04/17 09:46:09;;;;;;;5.73;4.00;;;10.60;99.90;;;;;;5447245;26;20607;-73
2024/04/17 09:48:59;;;;;;;6.40;4.37;;;10.70;99.90;;;;;;5447183;26;20227;-74
2024/04/17 09:52:11;;;;;;;5.93;4.60;;;10.80;99.90;;;;;;5448307;26;20747;-74
2024/04/17 09:55:23;;;;;;;8.77;5.63;;;11.00;99.90;;;;;;5453774;26;20703;-73
2024/04/17 09:58:13;;;;;;;7.60;5.63;;;10.90;99.90;;;;;;5423623;26;20223;-73
2024/04/17 10:01:06;;;;;;;6.80;4.63;;;10.70;99.90;;;;;;5427125;26;20216;-73
2024/04/17 10:03:55;;;;;;;8.33;5.30;;;11.00;99.90;;;;;;5450914;26;20216;-74
2024/04/17 10:06:44;;;;;;;7.03;4.63;;;11.10;99.90;;;;;;5452495;26;20699;-74
2024/04/17 10:09:33;;;;;;;6.57;4.63;;;10.00;99.90;;;;;;5424649;26;20262;-74
2024/04/17 10:12:22;;;;;;;7.77;4.70;;;10.30;99.90;;;;;;5451619;26;20266;-73
2024/04/17 10:15:11;;;;;;;6.17;4.30;;;10.00;99.90;;;;;;5450812;26;20231;-74
2024/04/17 10:17:58;;;;;;;7.07;4.50;;;10.30;99.90;;;;;;5425721;26;20698;-73
2024/04/17 10:20:47;;;;;;;8.60;5.03;;;10.10;99.90;;;;;;5450612;26;20332;-74
2024/04/17 10:23:34;;;;;;;6.60;4.50;;;9.70;99.90;;;;;;5450468;26;20882;-74
2024/04/17 10:26:22;;;;;;;5.47;3.80;;;9.30;99.90;;;;;;5424209;26;20885;-74
2024/04/17 10:29:25;;;;;;;5.10;3.70;;;9.60;99.90;;;;;;5449665;26;20319;-74
2024/04/17 10:32:14;;;;;;;5.90;4.07;;;9.80;99.90;;;;;;5450248;26;20262;-74
2024/04/17 10:35:12;;;;;;;5.93;3.93;;;9.10;99.90;;;;;;5450597;26;20239;-73
2024/04/17 10:38:07;;;;;;;4.70;3.30;;;8.80;99.90;;;;;;5450571;26;20799;-73
2024/04/17 10:41:14;;;;;;;5.43;3.63;;;9.20;99.90;;;;;;5450712;26;20632;-74
2024/04/17 10:44:02;;;;;;;4.70;3.57;;;9.50;99.90;;;;;;5451387;26;20691;-74
2024/04/17 10:47:04;;;;;;;4.73;3.27;;;9.60;99.90;;;;;;5449346;26;20300;-73
2024/04/17 10:49:59;;;;;;;4.87;3.43;;;9.30;99.90;;;;;;5453001;26;20658;-73
2024/04/17 10:52:48;;;;;;;5.00;3.90;;;9.30;99.90;;;;;;5473909;26;20699;-74
2024/04/17 10:55:36;;;;;;;6.47;4.40;;;9.30;99.90;;;;;;5424921;26;20261;-73
2024/04/17 10:58:25;;;;;;;6.73;4.40;;;9.10;99.90;;;;;;5449694;26;21225;-74
2024/04/17 11:01:13;;;;;;;4.70;3.50;;;9.00;99.90;;;;;;5424659;26;20278;-74
2024/04/17 11:04:00;;;;;;;5.23;3.97;;;9.10;99.90;;;;;;5451429;26;20218;-74
2024/04/17 11:06:49;;;;;;;7.80;4.60;;;9.30;99.90;;;;;;5449925;26;20410;-73
2024/04/17 11:09:41;;;;;;;6.13;4.53;;;9.10;99.90;;;;;;5450178;26;20216;-74
2024/04/17 11:12:29;;;;;;;8.00;4.77;;;8.70;99.90;;;;;;5450034;26;20265;-74
2024/04/17 11:15:16;;;;;;;6.57;5.17;;;9.10;99.90;;;;;;5448904;26;20243;-73
2024/04/17 11:18:06;;;;;;;6.37;5.07;;;9.30;99.90;;;;;;5424811;26;20223;-73
2024/04/17 11:20:54;;;;;;;6.83;5.20;;;9.40;99.90;;;;;;5449660;26;20296;-73
2024/04/17 11:23:43;;;;;;;8.47;6.00;;;9.30;99.90;;;;;;5450029;26;20217;-73
2024/04/17 11:26:31;;;;;;;7.83;5.77;;;9.20;99.90;;;;;;5473332;26;20270;-74
2024/04/17 11:29:19;;;;;;;8.97;6.47;;;9.40;99.90;;;;;;5450867;26;20254;-73
2024/04/17 11:32:24;;;;;;;9.33;6.47;;;9.40;99.90;;;;;;5449681;26;20219;-73
2024/04/17 11:35:15;;;;;;;8.40;6.07;;;9.50;99.90;;;;;;5449299;26;20228;-74
2024/04/17 11:38:07;;;;;;;7.53;6.00;;;9.30;99.90;;;;;;5451537;26;20215;-74
2024/04/17 11:40:55;;;;;;;7.43;5.57;;;9.30;99.90;;;;;;5449941;26;20316;-73
2024/04/17 11:43:44;;;;;;;7.53;5.80;;;9.30;99.90;;;;;;5448422;26;20619;-73
2024/04/17 11:46:33;;;;;;;9.33;6.27;;;9.30;99.90;;;;;;5451413;26;20218;-73
2024/04/17 11:49:22;;;;;;;8.30;6.00;;;9.20;99.90;;;;;;5449058;26;20262;-73
2024/04/17 11:52:11;;;;;;;8.57;6.23;;;9.10;99.90;;;;;;5450540;26;20265;-73
2024/04/17 11:55:00;;;;;;;9.43;6.40;;;9.10;99.90;;;;;;5449009;26;20219;-73
2024/04/17 11:57:47;;;;;;;9.73;6.73;;;9.30;99.90;;;;;;5449431;26;20218;-73
2024/04/17 12:00:35;;;;;;;8.57;6.47;;;9.60;99.90;;;;;;5450230;26;20257;-73
2024/04/17 12:03:22;;;;;;;8.60;6.80;;;9.60;99.90;;;;;;5449337;26;20229;-73
2024/04/17 12:06:12;;;;;;;8.97;6.00;;;9.50;99.90;;;;;;5447849;26;20632;-73
2024/04/17 12:09:01;;;;;;;7.27;5.43;;;9.50;99.90;;;;;;5425028;26;20219;-73
2024/04/17 12:11:48;;;;;;;7.30;5.07;;;9.30;99.90;;;;;;5450965;26;20219;-73
2024/04/17 12:14:36;;;;;;;7.77;4.57;;;9.30;99.90;;;;;;5447472;26;20212;-73
2024/04/17 12:17:24;;;;;;;7.03;4.97;;;8.70;99.90;;;;;;5400581;26;20705;-73
2024/04/17 12:20:12;;;;;;;4.97;3.80;;;9.00;99.90;;;;;;5378437;26;20680;-73
2024/04/17 12:22:59;;;;;;;5.80;4.03;;;9.20;99.90;;;;;;5402039;26;20209;-73
2024/04/17 12:29:14;;;;;;;5.80;4.53;;;9.80;99.90;;;;;;5341704;26;20312;-74
2024/04/17 12:32:01;;;;;;;6.47;4.77;;;9.90;99.90;;;;;;5342470;26;20758;-74
2024/04/17 12:34:49;;;;;;;5.50;4.00;;;10.00;99.90;;;;;;5340354;26;20238;-73
2024/04/17 12:37:38;;;;;;;4.87;4.00;;;10.40;99.90;;;;;;5340704;26;20279;-73
2024/04/17 12:40:26;;;;;;;5.50;4.07;;;11.00;99.90;;;;;;5340283;26;20663;-74
2024/04/17 12:43:14;;;;;;;5.17;4.10;;;11.80;99.90;;;;;;5342410;26;20809;-73
2024/04/17 12:46:03;;;;;;;5.87;4.07;;;12.20;99.90;;;;;;5342341;26;20261;-73
2024/04/17 12:48:50;;;;;;;5.97;4.13;;;11.60;99.90;;;;;;5341824;26;20297;-73
2024/04/17 12:51:38;;;;;;;6.33;4.70;;;11.90;99.90;;;;;;5342011;26;20608;-73
2024/04/17 12:54:25;;;;;;;7.67;4.67;;;11.30;99.90;;;;;;5342119;26;20269;-73
2024/04/17 12:57:13;;;;;;;6.70;3.47;;;10.60;99.90;;;;;;5342193;26;20261;-73
2024/04/17 13:00:01;;;;;;;4.20;2.50;;;10.00;99.90;;;;;;5361235;26;20225;-73
2024/04/17 13:02:49;;;;;;;2.43;2.07;;;9.40;99.90;;;;;;5375923;26;20678;-73
2024/04/17 13:05:36;;;;;;;3.50;2.13;;;9.00;99.90;;;;;;5378094;26;20237;-73
2024/04/17 13:08:24;;;;;;;6.33;2.57;;;9.00;99.90;;;;;;5377831;26;20229;-73
2024/04/17 13:11:11;;;;;;;6.50;2.77;;;9.00;99.90;;;;;;5378866;26;20255;-73
2024/04/17 13:14:02;;;;;;;5.03;2.87;;;8.90;99.90;;;;;;5376604;26;20217;-73
2024/04/17 13:16:50;;;;;;;5.70;2.83;;;8.80;99.90;;;;;;5406049;26;20585;-73
2024/04/17 13:19:37;;;;;;;5.27;2.80;;;8.60;99.90;;;;;;5411856;26;20228;-73
2024/04/17 13:22:25;;;;;;;6.40;2.57;;;8.60;99.90;;;;;;5412095;26;20652;-73
2024/04/17 13:25:13;;;;;;;2.90;1.83;;;8.50;99.90;;;;;;5412142;26;20323;-73
2024/04/17 13:28:00;;;;;;;2.13;1.50;;;8.50;99.90;;;;;;5416692;26;20258;-73
2024/04/17 13:30:55;;;;;;;3.13;1.60;;;8.60;99.90;;;;;;5415127;26;20329;-73
2024/04/17 13:33:43;;;;;;;3.83;2.03;;;8.60;99.90;;;;;;5414170;26;20219;-73
2024/04/17 13:36:31;;;;;;;2.70;1.70;;;8.60;99.90;;;;;;5416564;26;20212;-73
2024/04/17 13:39:18;;;;;;;2.93;1.80;;;8.70;99.90;;;;;;5417571;26;20286;-73
2024/04/17 13:42:06;;;;;;;6.37;2.57;;;8.60;99.90;;;;;;5417404;26;20220;-73
2024/04/17 13:44:53;;;;;;;4.23;2.50;;;8.60;99.90;;;;;;5415139;26;20304;-73
2024/04/17 13:47:41;;;;;;;5.27;1.90;;;8.60;99.90;;;;;;5416229;26;20698;-73
2024/04/17 13:50:29;;;;;;;2.97;1.90;;;8.50;99.90;;;;;;5414801;26;20231;-74
2024/04/17 13:53:16;;;;;;;26.80;3.83;;;8.60;99.90;;;;;;5416105;26;20216;-73
2024/04/17 13:56:04;;;;;;;4.17;1.87;;;8.80;99.90;;;;;;5415242;26;20254;-73
2024/04/17 13:58:52;;;;;;;2.87;1.87;;;8.60;99.90;;;;;;5414952;26;20267;-73
2024/04/17 14:01:40;;;;;;;19.17;2.07;;;8.60;99.90;;;;;;5413679;26;20688;-73
2024/04/17 14:04:28;;;;;;;2.53;1.60;;;8.70;99.90;;;;;;5416047;26;20695;-74
2024/04/17 14:07:16;;;;;;;2.30;1.80;;;8.90;99.90;;;;;;5416718;26;20336;-73
2024/04/17 14:10:03;;;;;;;3.83;1.67;;;8.70;99.90;;;;;;5415284;26;20651;-72
2024/04/17 14:12:51;;;;;;;5.13;1.80;;;8.50;99.90;;;;;;5413546;26;20221;-73
2024/04/17 14:15:39;;;;;;;6.50;1.60;;;8.50;99.90;;;;;;5428401;26;20624;-73
2024/04/17 14:18:30;;;;;;;3.17;1.57;;;8.10;99.90;;;;;;5426684;26;20219;-74
2024/04/17 14:21:18;;;;;;;4.87;1.60;;;7.70;99.90;;;;;;5422818;26;20309;-76
2024/04/17 14:24:06;;;;;;;4.20;1.50;;;7.60;99.90;;;;;;5425130;26;20216;-74
2024/04/17 14:26:53;;;;;;;1.50;1.40;;;7.60;99.90;;;;;;5450809;26;20213;-77
2024/04/17 14:29:41;;;;;;;2.00;1.50;;;7.70;99.90;;;;;;5450302;26;20706;-79
2024/04/17 14:32:28;;;;;;;3.77;2.10;;;7.70;99.90;;;;;;5450253;26;20328;-74
2024/04/17 14:35:16;;;;;;;2.87;2.30;;;7.50;99.90;;;;;;5425092;26;20231;-74
2024/04/17 14:38:07;;;;;;;2.37;2.10;;;7.50;99.90;;;;;;5451416;26;20741;-78
2024/04/17 14:41:01;;;;;;;4.23;2.33;;;7.50;99.90;;;;;;5449182;26;20257;-79
2024/04/17 14:43:48;;;;;;;2.30;2.10;;;7.50;99.90;;;;;;5452506;26;20276;-78
2024/04/17 14:46:36;;;;;;;3.57;2.37;;;7.50;99.90;;;;;;5424019;26;20270;-80